sensor_id;sensor_type;location;lat;lon;timestamp;pressure;altitude;pressure_sealevel;temperature;humidity
52291;BME280;39663;45.432;28.050;2023-02-18T00:00:00;101421.07;;;9.61;38.77
52291;BME280;39663;45.432;28.050;2023-02-18T00:00:32;101420.37;;;9.76;39.75
52291;BME280;39663;45.432;28.050;2023-02-18T00:01:08;101418.56;;;10.03;39.54
52291;BME280;39663;45.432;28.050;2023-02-18T00:01:40;101417.59;;;9.68;38.52
52291;BME280;39663;45.432;28.050;2023-02-18T00:02:12;101421.42;;;9.86;39.42
52291;BME280;39663;45.432;28.050;2023-02-18T00:02:44;101421.18;;;10.28;38.98
52291;BME280;39663;45.432;28.050;2023-02-18T00:03:16;101423.66;;;9.94;38.96
52291;BME280;39663;45.432;28.050;2023-02-18T00:03:48;101418.62;;;10.11;40.04
52291;BME280;39663;45.432;28.050;2023-02-18T00:04:19;101421.65;;;9.80;38.65
52291;BME280;39663;45.432;28.050;2023-02-18T00:04:53;101420.00;;;9.93;38.26
52291;BME280;39663;45.432;28.050;2023-02-18T00:05:25;101419.41;;;9.73;38.73
52291;BME280;39663;45.432;28.050;2023-02-18T00:05:58;101420.96;;;9.71;38.83
52291;BME280;39663;45.432;28.050;2023-02-18T00:06:32;101420.09;;;10.08;38.34
52291;BME280;39663;45.432;28.050;2023-02-18T00:07:04;101420.20;;;9.72;38.42
52291;BME280;39663;45.432;28.050;2023-02-18T00:07:37;101421.86;;;9.88;39.79
52291;BME280;39663;45.432;28.050;2023-02-18T00:08:09;101423.14;;;9.88;38.79
52291;BME280;39663;45.432;28.050;2023-02-18T00:08:41;101422.55;;;9.75;39.16
52291;BME280;39663;45.432;28.050;2023-02-18T00:09:13;101420.84;;;9.70;38.11
52291;BME280;39663;45.432;28.050;2023-02-18T00:09:45;101421.76;;;9.86;38.70
52291;BME280;39663;45.432;28.050;2023-02-18T00:10:17;101422.26;;;9.77;39.31
52291;BME280;39663;45.432;28.050;2023-02-18T00:10:49;101425.70;;;9.87;39.43
52291;BME280;39663;45.432;28.050;2023-02-18T00:11:21;101425.34;;;9.97;39.13
52291;BME280;39663;45.432;28.050;2023-02-18T00:11:53;101426.71;;;10.05;38.14
52291;BME280;39663;45.432;28.050;2023-02-18T00:12:24;101424.78;;;9.78;38.27
52291;BME280;39663;45.432;28.050;2023-02-18T00:12:56;101425.70;;;10.01;39.75
52291;BME280;39663;45.432;28.050;2023-02-18T00:13:27;101426.92;;;9.73;37.12
52291;BME280;39663;45.432;28.050;2023-02-18T00:14:01;101427.51;;;9.71;39.11
52291;BME280;39663;45.432;28.050;2023-02-18T00:14:32;101425.29;;;10.00;39.62
52291;BME280;39663;45.432;28.050;2023-02-18T00:15:05;101425.51;;;9.90;39.51
52291;BME280;39663;45.432;28.050;2023-02-18T00:15:37;101426.67;;;10.07;37.44
52291;BME280;39663;45.432;28.050;2023-02-18T00:16:11;101428.58;;;10.16;38.62
52291;BME280;39663;45.432;28.050;2023-02-18T00:16:44;101430.78;;;10.00;39.69
52291;BME280;39663;45.432;28.050;2023-02-18T00:17:15;101428.01;;;10.10;38.58
52291;BME280;39663;45.432;28.050;2023-02-18T00:17:47;101430.37;;;10.34;39.31
52291;BME280;39663;45.432;28.050;2023-02-18T00:18:18;101425.02;;;10.42;37.87
52291;BME280;39663;45.432;28.050;2023-02-18T00:18:54;101424.79;;;9.92;38.16
52291;BME280;39663;45.432;28.050;2023-02-18T00:19:25;101424.26;;;9.65;38.12
52291;BME280;39663;45.432;28.050;2023-02-18T00:19:57;101423.04;;;9.55;37.86
52291;BME280;39663;45.432;28.050;2023-02-18T00:20:29;101424.43;;;9.76;38.08
52291;BME280;39663;45.432;28.050;2023-02-18T00:21:02;101423.57;;;9.91;38.17
52291;BME280;39663;45.432;28.050;2023-02-18T00:21:34;101427.40;;;9.78;39.03
52291;BME280;39663;45.432;28.050;2023-02-18T00:22:06;101429.90;;;10.04;38.42
52291;BME280;39663;45.432;28.050;2023-02-18T00:22:38;101425.34;;;9.98;37.98
52291;BME280;39663;45.432;28.050;2023-02-18T00:23:09;101423.82;;;9.91;38.00
52291;BME280;39663;45.432;28.050;2023-02-18T00:23:41;101424.30;;;9.91;38.71
52291;BME280;39663;45.432;28.050;2023-02-18T00:24:14;101419.93;;;9.79;38.70
52291;BME280;39663;45.432;28.050;2023-02-18T00:24:47;101418.30;;;9.98;36.87
52291;BME280;39663;45.432;28.050;2023-02-18T00:25:18;101420.07;;;9.87;38.07
52291;BME280;39663;45.432;28.050;2023-02-18T00:25:58;101415.99;;;9.81;37.99
52291;BME280;39663;45.432;28.050;2023-02-18T00:26:30;101416.53;;;9.94;37.48
52291;BME280;39663;45.432;28.050;2023-02-18T00:27:01;101415.83;;;9.90;37.14
52291;BME280;39663;45.432;28.050;2023-02-18T00:27:33;101414.72;;;9.83;37.90
52291;BME280;39663;45.432;28.050;2023-02-18T00:28:04;101414.12;;;9.66;38.43
52291;BME280;39663;45.432;28.050;2023-02-18T00:28:36;101413.76;;;10.06;38.49
52291;BME280;39663;45.432;28.050;2023-02-18T00:29:08;101414.84;;;9.63;38.17
52291;BME280;39663;45.432;28.050;2023-02-18T00:29:40;101412.35;;;9.97;37.61
52291;BME280;39663;45.432;28.050;2023-02-18T00:30:12;101411.48;;;10.18;38.70
52291;BME280;39663;45.432;28.050;2023-02-18T00:30:43;101413.60;;;9.90;37.51
52291;BME280;39663;45.432;28.050;2023-02-18T00:31:17;101411.04;;;10.07;37.65
52291;BME280;39663;45.432;28.050;2023-02-18T00:31:48;101408.93;;;9.85;39.08
52291;BME280;39663;45.432;28.050;2023-02-18T00:32:20;101405.43;;;9.73;39.17
52291;BME280;39663;45.432;28.050;2023-02-18T00:32:51;101407.11;;;9.91;39.36
52291;BME280;39663;45.432;28.050;2023-02-18T00:33:23;101403.17;;;9.94;38.37
52291;BME280;39663;45.432;28.050;2023-02-18T00:33:56;101403.52;;;9.99;38.28
52291;BME280;39663;45.432;28.050;2023-02-18T00:34:28;101399.88;;;10.22;38.64
52291;BME280;39663;45.432;28.050;2023-02-18T00:34:59;101399.63;;;10.06;38.15
52291;BME280;39663;45.432;28.050;2023-02-18T00:35:31;101399.58;;;9.89;38.27
52291;BME280;39663;45.432;28.050;2023-02-18T00:36:04;101397.09;;;10.01;39.64
52291;BME280;39663;45.432;28.050;2023-02-18T00:36:36;101396.71;;;9.99;37.79
52291;BME280;39663;45.432;28.050;2023-02-18T00:37:07;101392.84;;;9.85;37.87
52291;BME280;39663;45.432;28.050;2023-02-18T00:37:39;101395.12;;;9.80;39.06
52291;BME280;39663;45.432;28.050;2023-02-18T00:38:10;101394.74;;;9.92;39.77
52291;BME280;39663;45.432;28.050;2023-02-18T00:38:43;101393.49;;;10.10;38.54
52291;BME280;39663;45.432;28.050;2023-02-18T00:39:15;101392.72;;;10.03;38.45
52291;BME280;39663;45.432;28.050;2023-02-18T00:39:46;101390.56;;;9.99;38.51
52291;BME280;39663;45.432;28.050;2023-02-18T00:40:18;101393.86;;;10.00;37.64
52291;BME280;39663;45.432;28.050;2023-02-18T00:40:50;101390.23;;;10.38;39.27
52291;BME280;39663;45.432;28.050;2023-02-18T00:41:23;101390.75;;;9.92;38.98
52291;BME280;39663;45.432;28.050;2023-02-18T00:41:55;101389.09;;;10.03;38.95
52291;BME280;39663;45.432;28.050;2023-02-18T00:42:27;101389.27;;;9.94;39.59
52291;BME280;39663;45.432;28.050;2023-02-18T00:42:58;101388.40;;;10.09;40.06
52291;BME280;39663;45.432;28.050;2023-02-18T00:43:30;101387.53;;;10.25;38.77
52291;BME280;39663;45.432;28.050;2023-02-18T00:44:02;101384.78;;;10.08;37.39
52291;BME280;39663;45.432;28.050;2023-02-18T00:44:33;101386.38;;;10.05;38.90
52291;BME280;39663;45.432;28.050;2023-02-18T00:45:05;101380.55;;;10.23;39.57
52291;BME280;39663;45.432;28.050;2023-02-18T00:45:37;101374.53;;;10.19;38.84
52291;BME280;39663;45.432;28.050;2023-02-18T00:46:09;101376.81;;;10.36;37.97
52291;BME280;39663;45.432;28.050;2023-02-18T00:46:41;101377.06;;;10.44;39.55
52291;BME280;39663;45.432;28.050;2023-02-18T00:47:12;101375.13;;;10.35;38.76
52291;BME280;39663;45.432;28.050;2023-02-18T00:47:44;101370.00;;;10.52;39.48
52291;BME280;39663;45.432;28.050;2023-02-18T00:48:15;101370.33;;;10.14;39.54
52291;BME280;39663;45.432;28.050;2023-02-18T00:48:48;101369.43;;;10.17;40.37
52291;BME280;39663;45.432;28.050;2023-02-18T00:49:19;101366.37;;;10.33;40.03
52291;BME280;39663;45.432;28.050;2023-02-18T00:49:51;101363.10;;;10.16;38.10
52291;BME280;39663;45.432;28.050;2023-02-18T00:50:22;101365.46;;;10.22;39.85
52291;BME280;39663;45.432;28.050;2023-02-18T00:50:54;101365.64;;;10.28;40.71
52291;BME280;39663;45.432;28.050;2023-02-18T00:51:26;101359.43;;;10.31;40.68
52291;BME280;39663;45.432;28.050;2023-02-18T00:51:57;101360.38;;;10.27;39.79
52291;BME280;39663;45.432;28.050;2023-02-18T00:52:29;101355.32;;;10.66;39.33
52291;BME280;39663;45.432;28.050;2023-02-18T00:53:00;101353.28;;;10.24;39.96
52291;BME280;39663;45.432;28.050;2023-02-18T00:53:32;101353.20;;;10.18;39.96
52291;BME280;39663;45.432;28.050;2023-02-18T00:54:04;101355.57;;;10.31;40.51
52291;BME280;39663;45.432;28.050;2023-02-18T00:54:36;101358.25;;;10.29;39.07
52291;BME280;39663;45.432;28.050;2023-02-18T00:55:08;101355.66;;;10.42;38.56
52291;BME280;39663;45.432;28.050;2023-02-18T00:55:40;101354.55;;;10.06;37.92
52291;BME280;39663;45.432;28.050;2023-02-18T00:56:12;101352.14;;;10.00;38.31
52291;BME280;39663;45.432;28.050;2023-02-18T00:56:44;101349.60;;;10.08;40.07
52291;BME280;39663;45.432;28.050;2023-02-18T00:57:15;101352.51;;;10.00;39.24
52291;BME280;39663;45.432;28.050;2023-02-18T00:57:46;101349.13;;;10.06;39.01
52291;BME280;39663;45.432;28.050;2023-02-18T00:58:18;101349.12;;;10.15;37.87
52291;BME280;39663;45.432;28.050;2023-02-18T00:58:50;101350.01;;;10.19;38.58
52291;BME280;39663;45.432;28.050;2023-02-18T00:59:22;101351.39;;;10.28;38.66
52291;BME280;39663;45.432;28.050;2023-02-18T00:59:53;101352.00;;;10.38;38.74
52291;BME280;39663;45.432;28.050;2023-02-18T01:00:25;101352.48;;;10.44;38.77
52291;BME280;39663;45.432;28.050;2023-02-18T01:00:57;101354.66;;;10.43;39.01
52291;BME280;39663;45.432;28.050;2023-02-18T01:01:28;101359.13;;;10.23;38.30
52291;BME280;39663;45.432;28.050;2023-02-18T01:02:00;101352.87;;;10.24;39.29
52291;BME280;39663;45.432;28.050;2023-02-18T01:02:32;101354.84;;;9.95;37.85
52291;BME280;39663;45.432;28.050;2023-02-18T01:03:04;101353.47;;;10.14;39.11
52291;BME280;39663;45.432;28.050;2023-02-18T01:03:38;101353.05;;;10.21;39.73
52291;BME280;39663;45.432;28.050;2023-02-18T01:04:09;101354.25;;;10.11;38.39
52291;BME280;39663;45.432;28.050;2023-02-18T01:04:41;101352.17;;;10.21;38.83
52291;BME280;39663;45.432;28.050;2023-02-18T01:05:13;101350.05;;;10.28;38.08
52291;BME280;39663;45.432;28.050;2023-02-18T01:05:44;101347.47;;;10.22;38.76
52291;BME280;39663;45.432;28.050;2023-02-18T01:06:16;101347.67;;;10.29;39.48
52291;BME280;39663;45.432;28.050;2023-02-18T01:06:48;101346.40;;;10.34;39.38
52291;BME280;39663;45.432;28.050;2023-02-18T01:07:19;101345.58;;;10.21;39.29
52291;BME280;39663;45.432;28.050;2023-02-18T01:07:51;101348.93;;;10.39;39.54
52291;BME280;39663;45.432;28.050;2023-02-18T01:08:22;101348.11;;;10.41;39.90
52291;BME280;39663;45.432;28.050;2023-02-18T01:08:54;101347.43;;;10.71;38.59
52291;BME280;39663;45.432;28.050;2023-02-18T01:09:25;101344.80;;;10.56;37.32
52291;BME280;39663;45.432;28.050;2023-02-18T01:09:57;101344.96;;;10.48;39.48
52291;BME280;39663;45.432;28.050;2023-02-18T01:10:29;101346.50;;;10.59;38.29
52291;BME280;39663;45.432;28.050;2023-02-18T01:11:00;101336.92;;;10.43;38.22
52291;BME280;39663;45.432;28.050;2023-02-18T01:11:33;101345.26;;;10.40;38.89
52291;BME280;39663;45.432;28.050;2023-02-18T01:12:05;101347.94;;;10.44;39.24
52291;BME280;39663;45.432;28.050;2023-02-18T01:12:36;101346.99;;;10.47;39.56
52291;BME280;39663;45.432;28.050;2023-02-18T01:13:08;101346.54;;;10.39;38.63
52291;BME280;39663;45.432;28.050;2023-02-18T01:13:40;101346.42;;;10.39;37.55
52291;BME280;39663;45.432;28.050;2023-02-18T01:14:12;101343.63;;;10.28;39.33
52291;BME280;39663;45.432;28.050;2023-02-18T01:14:44;101343.26;;;10.26;40.71
52291;BME280;39663;45.432;28.050;2023-02-18T01:15:16;101345.03;;;10.11;37.75
52291;BME280;39663;45.432;28.050;2023-02-18T01:15:48;101343.24;;;10.14;38.43
52291;BME280;39663;45.432;28.050;2023-02-18T01:16:20;101343.61;;;9.98;39.58
52291;BME280;39663;45.432;28.050;2023-02-18T01:16:52;101346.29;;;10.13;39.65
52291;BME280;39663;45.432;28.050;2023-02-18T01:17:23;101342.37;;;10.14;40.36
52291;BME280;39663;45.432;28.050;2023-02-18T01:17:55;101340.84;;;10.19;39.46
52291;BME280;39663;45.432;28.050;2023-02-18T01:18:27;101345.94;;;10.16;39.59
52291;BME280;39663;45.432;28.050;2023-02-18T01:18:58;101345.44;;;10.21;40.28
52291;BME280;39663;45.432;28.050;2023-02-18T01:19:30;101344.52;;;9.80;37.91
52291;BME280;39663;45.432;28.050;2023-02-18T01:20:03;101346.97;;;9.88;40.10
52291;BME280;39663;45.432;28.050;2023-02-18T01:20:36;101341.93;;;9.99;40.82
52291;BME280;39663;45.432;28.050;2023-02-18T01:21:08;101346.14;;;10.01;39.95
52291;BME280;39663;45.432;28.050;2023-02-18T01:21:40;101344.07;;;9.90;39.12
52291;BME280;39663;45.432;28.050;2023-02-18T01:22:12;101343.36;;;10.13;39.54
52291;BME280;39663;45.432;28.050;2023-02-18T01:22:43;101344.52;;;10.25;38.62
52291;BME280;39663;45.432;28.050;2023-02-18T01:23:15;101345.32;;;10.01;39.66
52291;BME280;39663;45.432;28.050;2023-02-18T01:23:48;101343.85;;;9.28;40.03
52291;BME280;39663;45.432;28.050;2023-02-18T01:24:19;101343.43;;;9.34;38.27
52291;BME280;39663;45.432;28.050;2023-02-18T01:24:51;101341.64;;;9.67;40.21
52291;BME280;39663;45.432;28.050;2023-02-18T01:25:22;101342.81;;;9.73;39.08
52291;BME280;39663;45.432;28.050;2023-02-18T01:25:54;101341.88;;;9.76;39.72
52291;BME280;39663;45.432;28.050;2023-02-18T01:26:27;101339.48;;;9.73;38.15
52291;BME280;39663;45.432;28.050;2023-02-18T01:26:59;101336.06;;;9.91;40.55
52291;BME280;39663;45.432;28.050;2023-02-18T01:27:30;101334.98;;;9.83;40.75
52291;BME280;39663;45.432;28.050;2023-02-18T01:28:04;101329.35;;;10.06;38.36
52291;BME280;39663;45.432;28.050;2023-02-18T01:28:36;101332.15;;;10.03;38.33
52291;BME280;39663;45.432;28.050;2023-02-18T01:29:07;101335.12;;;9.94;38.25
52291;BME280;39663;45.432;28.050;2023-02-18T01:29:39;101334.28;;;9.83;38.50
52291;BME280;39663;45.432;28.050;2023-02-18T01:30:14;101337.82;;;9.53;39.89
52291;BME280;39663;45.432;28.050;2023-02-18T01:30:46;101335.08;;;9.73;39.92
52291;BME280;39663;45.432;28.050;2023-02-18T01:31:18;101339.62;;;9.66;40.02
52291;BME280;39663;45.432;28.050;2023-02-18T01:31:50;101339.25;;;9.42;40.07
52291;BME280;39663;45.432;28.050;2023-02-18T01:32:21;101339.87;;;9.59;39.98
52291;BME280;39663;45.432;28.050;2023-02-18T01:32:54;101341.33;;;9.74;39.85
52291;BME280;39663;45.432;28.050;2023-02-18T01:33:26;101339.32;;;9.79;41.01
52291;BME280;39663;45.432;28.050;2023-02-18T01:33:58;101335.32;;;10.13;40.35
52291;BME280;39663;45.432;28.050;2023-02-18T01:34:30;101335.17;;;9.78;38.99
52291;BME280;39663;45.432;28.050;2023-02-18T01:35:02;101333.67;;;9.86;38.32
52291;BME280;39663;45.432;28.050;2023-02-18T01:35:37;101334.94;;;10.05;39.10
52291;BME280;39663;45.432;28.050;2023-02-18T01:36:10;101336.35;;;9.64;41.18
52291;BME280;39663;45.432;28.050;2023-02-18T01:36:42;101342.44;;;9.74;39.33
52291;BME280;39663;45.432;28.050;2023-02-18T01:37:14;101343.65;;;9.28;39.46
52291;BME280;39663;45.432;28.050;2023-02-18T01:37:46;101343.61;;;9.42;39.83
52291;BME280;39663;45.432;28.050;2023-02-18T01:38:18;101340.69;;;9.53;39.47
52291;BME280;39663;45.432;28.050;2023-02-18T01:38:49;101334.64;;;9.23;40.46
52291;BME280;39663;45.432;28.050;2023-02-18T01:39:21;101329.81;;;9.50;40.67
52291;BME280;39663;45.432;28.050;2023-02-18T01:39:52;101327.42;;;9.47;40.81
52291;BME280;39663;45.432;28.050;2023-02-18T01:40:27;101319.75;;;9.47;41.93
52291;BME280;39663;45.432;28.050;2023-02-18T01:40:59;101312.14;;;9.76;40.36
52291;BME280;39663;45.432;28.050;2023-02-18T01:41:30;101310.15;;;9.64;41.17
52291;BME280;39663;45.432;28.050;2023-02-18T01:42:03;101314.37;;;9.90;39.89
52291;BME280;39663;45.432;28.050;2023-02-18T01:42:34;101317.90;;;9.75;40.95
52291;BME280;39663;45.432;28.050;2023-02-18T01:43:08;101322.43;;;9.82;39.60
52291;BME280;39663;45.432;28.050;2023-02-18T01:43:40;101320.09;;;9.39;40.97
52291;BME280;39663;45.432;28.050;2023-02-18T01:44:18;101323.15;;;9.52;41.05
52291;BME280;39663;45.432;28.050;2023-02-18T01:44:50;101322.47;;;9.37;41.01
52291;BME280;39663;45.432;28.050;2023-02-18T01:45:57;101322.09;;;9.70;41.34
52291;BME280;39663;45.432;28.050;2023-02-18T01:46:29;101321.54;;;9.44;40.74
52291;BME280;39663;45.432;28.050;2023-02-18T01:47:00;101315.10;;;9.66;41.02
52291;BME280;39663;45.432;28.050;2023-02-18T01:47:32;101315.24;;;9.83;40.70
52291;BME280;39663;45.432;28.050;2023-02-18T01:48:06;101316.25;;;10.05;42.10
52291;BME280;39663;45.432;28.050;2023-02-18T01:48:42;101317.79;;;10.03;40.06
52291;BME280;39663;45.432;28.050;2023-02-18T01:49:17;101318.08;;;9.85;39.19
52291;BME280;39663;45.432;28.050;2023-02-18T01:49:51;101321.86;;;10.29;40.49
52291;BME280;39663;45.432;28.050;2023-02-18T01:50:23;101315.12;;;9.92;39.84
52291;BME280;39663;45.432;28.050;2023-02-18T01:50:59;101313.84;;;9.69;38.68
52291;BME280;39663;45.432;28.050;2023-02-18T01:51:35;101304.75;;;9.77;40.82
52291;BME280;39663;45.432;28.050;2023-02-18T01:52:10;101303.56;;;9.83;40.43
52291;BME280;39663;45.432;28.050;2023-02-18T01:52:43;101304.80;;;10.04;40.83
52291;BME280;39663;45.432;28.050;2023-02-18T01:53:19;101300.36;;;9.93;40.23
52291;BME280;39663;45.432;28.050;2023-02-18T01:53:54;101303.00;;;9.91;41.27
52291;BME280;39663;45.432;28.050;2023-02-18T01:54:30;101305.36;;;10.22;40.66
52291;BME280;39663;45.432;28.050;2023-02-18T01:55:12;101301.45;;;9.94;40.25
52291;BME280;39663;45.432;28.050;2023-02-18T01:55:44;101301.18;;;9.59;39.93
52291;BME280;39663;45.432;28.050;2023-02-18T01:56:21;101304.53;;;9.45;39.24
52291;BME280;39663;45.432;28.050;2023-02-18T01:56:57;101299.90;;;9.49;41.55
52291;BME280;39663;45.432;28.050;2023-02-18T01:57:33;101296.97;;;9.25;39.81
52291;BME280;39663;45.432;28.050;2023-02-18T01:58:06;101292.15;;;9.79;40.80
52291;BME280;39663;45.432;28.050;2023-02-18T01:58:39;101295.33;;;9.54;40.41
52291;BME280;39663;45.432;28.050;2023-02-18T01:59:14;101301.82;;;9.59;39.36
52291;BME280;39663;45.432;28.050;2023-02-18T01:59:49;101297.38;;;9.65;40.14
52291;BME280;39663;45.432;28.050;2023-02-18T02:00:22;101292.29;;;9.63;40.43
52291;BME280;39663;45.432;28.050;2023-02-18T02:00:53;101290.27;;;9.36;41.91
52291;BME280;39663;45.432;28.050;2023-02-18T02:01:26;101288.55;;;9.31;41.52
52291;BME280;39663;45.432;28.050;2023-02-18T02:02:14;101295.28;;;9.42;42.18
52291;BME280;39663;45.432;28.050;2023-02-18T02:02:50;101302.73;;;9.46;39.50
52291;BME280;39663;45.432;28.050;2023-02-18T02:03:22;101303.23;;;9.19;42.24
52291;BME280;39663;45.432;28.050;2023-02-18T02:03:54;101298.81;;;9.31;42.00
52291;BME280;39663;45.432;28.050;2023-02-18T02:04:25;101294.96;;;9.74;40.84
52291;BME280;39663;45.432;28.050;2023-02-18T02:04:57;101301.60;;;9.33;40.62
52291;BME280;39663;45.432;28.050;2023-02-18T02:05:31;101303.51;;;9.43;41.77
52291;BME280;39663;45.432;28.050;2023-02-18T02:06:10;101300.19;;;9.59;41.33
52291;BME280;39663;45.432;28.050;2023-02-18T02:06:45;101298.43;;;9.57;40.61
52291;BME280;39663;45.432;28.050;2023-02-18T02:07:18;101293.98;;;9.48;41.87
52291;BME280;39663;45.432;28.050;2023-02-18T02:07:51;101292.64;;;9.61;40.14
52291;BME280;39663;45.432;28.050;2023-02-18T02:08:24;101295.85;;;9.56;41.00
52291;BME280;39663;45.432;28.050;2023-02-18T02:08:59;101294.59;;;9.51;39.70
52291;BME280;39663;45.432;28.050;2023-02-18T02:09:33;101295.79;;;9.44;42.40
52291;BME280;39663;45.432;28.050;2023-02-18T02:10:05;101289.72;;;9.22;40.20
52291;BME280;39663;45.432;28.050;2023-02-18T02:10:46;101290.00;;;9.62;41.42
52291;BME280;39663;45.432;28.050;2023-02-18T02:11:32;101282.85;;;9.71;41.22
52291;BME280;39663;45.432;28.050;2023-02-18T02:12:20;101281.34;;;9.60;40.90
52291;BME280;39663;45.432;28.050;2023-02-18T02:13:01;101284.13;;;9.92;40.77
52291;BME280;39663;45.432;28.050;2023-02-18T02:13:49;101283.33;;;9.32;41.61
52291;BME280;39663;45.432;28.050;2023-02-18T02:14:38;101280.49;;;9.74;41.86
52291;BME280;39663;45.432;28.050;2023-02-18T02:15:23;101277.27;;;9.35;42.20
52291;BME280;39663;45.432;28.050;2023-02-18T02:16:04;101275.51;;;9.69;39.88
52291;BME280;39663;45.432;28.050;2023-02-18T02:16:41;101271.60;;;9.83;41.19
52291;BME280;39663;45.432;28.050;2023-02-18T02:17:21;101273.88;;;9.68;40.92
52291;BME280;39663;45.432;28.050;2023-02-18T02:18:09;101270.70;;;9.53;40.53
52291;BME280;39663;45.432;28.050;2023-02-18T02:18:52;101274.30;;;9.59;41.31
52291;BME280;39663;45.432;28.050;2023-02-18T02:19:47;101281.50;;;9.78;41.43
52291;BME280;39663;45.432;28.050;2023-02-18T02:20:44;101288.50;;;9.77;41.15
52291;BME280;39663;45.432;28.050;2023-02-18T02:21:47;101286.57;;;9.59;41.18
52291;BME280;39663;45.432;28.050;2023-02-18T02:23:51;101282.91;;;9.42;41.38
52291;BME280;39663;45.432;28.050;2023-02-18T02:24:57;101280.51;;;9.86;41.46
52291;BME280;39663;45.432;28.050;2023-02-18T02:25:54;101277.04;;;9.73;39.15
52291;BME280;39663;45.432;28.050;2023-02-18T02:27:13;101274.62;;;9.65;39.94
52291;BME280;39663;45.432;28.050;2023-02-18T02:28:11;101277.81;;;9.50;40.46
52291;BME280;39663;45.432;28.050;2023-02-18T02:29:05;101277.75;;;9.28;42.48
52291;BME280;39663;45.432;28.050;2023-02-18T02:30:01;101279.54;;;9.53;41.79
52291;BME280;39663;45.432;28.050;2023-02-18T02:31:04;101280.42;;;9.64;41.75
52291;BME280;39663;45.432;28.050;2023-02-18T02:32:00;101282.71;;;9.57;41.28
52291;BME280;39663;45.432;28.050;2023-02-18T02:32:52;101287.37;;;9.52;40.70
52291;BME280;39663;45.432;28.050;2023-02-18T02:34:42;101284.99;;;9.69;41.75
52291;BME280;39663;45.432;28.050;2023-02-18T02:35:20;101276.02;;;9.66;41.93
52291;BME280;39663;45.432;28.050;2023-02-18T02:35:58;101269.24;;;9.69;41.50
52291;BME280;39663;45.432;28.050;2023-02-18T02:36:34;101271.67;;;9.81;40.84
52291;BME280;39663;45.432;28.050;2023-02-18T02:37:13;101262.81;;;10.00;40.78
52291;BME280;39663;45.432;28.050;2023-02-18T02:37:52;101256.91;;;9.92;41.73
52291;BME280;39663;45.432;28.050;2023-02-18T02:38:31;101251.08;;;10.15;42.15
52291;BME280;39663;45.432;28.050;2023-02-18T02:39:10;101250.38;;;9.76;41.95
52291;BME280;39663;45.432;28.050;2023-02-18T02:39:55;101254.96;;;9.84;42.44
52291;BME280;39663;45.432;28.050;2023-02-18T02:40:34;101253.21;;;9.87;41.31
52291;BME280;39663;45.432;28.050;2023-02-18T02:41:16;101252.69;;;9.94;41.54
52291;BME280;39663;45.432;28.050;2023-02-18T02:41:57;101248.55;;;10.12;42.15
52291;BME280;39663;45.432;28.050;2023-02-18T02:42:39;101243.59;;;10.24;41.99
52291;BME280;39663;45.432;28.050;2023-02-18T02:43:20;101239.72;;;9.85;41.89
52291;BME280;39663;45.432;28.050;2023-02-18T02:44:10;101236.28;;;9.80;39.85
52291;BME280;39663;45.432;28.050;2023-02-18T02:44:49;101232.90;;;9.89;41.83
52291;BME280;39663;45.432;28.050;2023-02-18T02:45:32;101232.08;;;10.12;41.17
52291;BME280;39663;45.432;28.050;2023-02-18T02:46:12;101231.45;;;10.12;40.53
52291;BME280;39663;45.432;28.050;2023-02-18T02:46:53;101227.86;;;9.98;41.15
52291;BME280;39663;45.432;28.050;2023-02-18T02:47:35;101227.25;;;10.30;40.01
52291;BME280;39663;45.432;28.050;2023-02-18T02:48:14;101227.21;;;9.63;42.23
52291;BME280;39663;45.432;28.050;2023-02-18T02:48:57;101222.24;;;10.05;42.20
52291;BME280;39663;45.432;28.050;2023-02-18T02:49:38;101217.36;;;9.73;42.05
52291;BME280;39663;45.432;28.050;2023-02-18T02:50:18;101216.81;;;10.18;41.28
52291;BME280;39663;45.432;28.050;2023-02-18T02:50:55;101214.82;;;9.75;41.71
52291;BME280;39663;45.432;28.050;2023-02-18T02:51:39;101212.61;;;9.80;41.53
52291;BME280;39663;45.432;28.050;2023-02-18T02:52:15;101211.91;;;10.04;41.99
52291;BME280;39663;45.432;28.050;2023-02-18T02:52:53;101212.27;;;9.86;41.32
52291;BME280;39663;45.432;28.050;2023-02-18T02:53:30;101209.60;;;9.87;41.13
52291;BME280;39663;45.432;28.050;2023-02-18T02:54:14;101213.14;;;9.93;40.73
52291;BME280;39663;45.432;28.050;2023-02-18T02:54:46;101209.03;;;9.79;40.26
52291;BME280;39663;45.432;28.050;2023-02-18T02:55:17;101213.60;;;9.59;41.25
52291;BME280;39663;45.432;28.050;2023-02-18T02:55:50;101216.21;;;9.63;41.88
52291;BME280;39663;45.432;28.050;2023-02-18T02:56:23;101215.81;;;9.46;41.44
52291;BME280;39663;45.432;28.050;2023-02-18T02:57:44;101218.24;;;9.48;40.41
52291;BME280;39663;45.432;28.050;2023-02-18T02:58:18;101222.66;;;8.96;42.32
52291;BME280;39663;45.432;28.050;2023-02-18T02:58:56;101226.32;;;9.22;42.96
52291;BME280;39663;45.432;28.050;2023-02-18T02:59:30;101220.46;;;9.41;41.80
52291;BME280;39663;45.432;28.050;2023-02-18T03:00:06;101223.23;;;8.93;41.49
52291;BME280;39663;45.432;28.050;2023-02-18T03:00:49;101226.04;;;8.87;41.72
52291;BME280;39663;45.432;28.050;2023-02-18T03:01:35;101227.66;;;8.39;41.92
52291;BME280;39663;45.432;28.050;2023-02-18T03:02:23;101223.65;;;8.57;43.43
52291;BME280;39663;45.432;28.050;2023-02-18T03:03:14;101223.83;;;8.43;42.19
52291;BME280;39663;45.432;28.050;2023-02-18T03:04:37;101224.45;;;8.36;42.35
52291;BME280;39663;45.432;28.050;2023-02-18T03:05:20;101224.61;;;7.89;43.32
52291;BME280;39663;45.432;28.050;2023-02-18T03:06:16;101221.54;;;7.40;44.39
52291;BME280;39663;45.432;28.050;2023-02-18T03:07:17;101220.51;;;7.74;45.06